Time;durP1;ratioP1;P1;durP2;ratioP2;P2;SDS_P1;SDS_P2;PMS_P1;PMS_P2;Temp;Humidity;BMP_temperature;BMP_pressure;BME280_temperature;BME280_humidity;BME280_pressure;Samples;Min_cycle;Max_cycle;Signal;HPM_P1;HPM_P2
2022/01/02 00:00:25;;;;;;;12.38;5.50;;;;;;;;;;4973348;28;106159;-66
2022/01/02 00:02:52;;;;;;;10.82;4.72;;;;;;;;;;4965156;28;106598;-65
2022/01/02 00:05:20;;;;;;;12.80;5.45;;;;;;;;;;4973060;28;107123;-66
2022/01/02 00:08:05;;;;;;;12.40;5.05;;;;;;;;;;4965292;28;107289;-65
2022/01/02 00:10:36;;;;;;;15.40;5.50;;;;;;;;;;4969186;28;105626;-66
2022/01/02 00:13:04;;;;;;;10.73;5.40;;;;;;;;;;4975374;28;106756;-65
2022/01/02 00:15:30;;;;;;;13.90;5.38;;;;;;;;;;4978907;28;108358;-65
2022/01/02 00:18:05;;;;;;;12.95;5.50;;;;;;;;;;4961662;28;107874;-65
2022/01/02 00:20:32;;;;;;;13.40;6.20;;;;;;;;;;4973210;28;107464;-66
2022/01/02 00:22:59;;;;;;;17.13;5.47;;;;;;;;;;4970399;28;105526;-65
2022/01/02 00:25:29;;;;;;;13.07;5.80;;;;;;;;;;4971081;28;106900;-67
2022/01/02 00:27:57;;;;;;;13.38;6.15;;;;;;;;;;4967118;28;106482;-65
2022/01/02 00:30:39;;;;;;;12.77;6.05;;;;;;;;;;4982180;28;106795;-66
2022/01/02 00:33:06;;;;;;;13.35;6.10;;;;;;;;;;4967640;28;106996;-66
2022/01/02 00:35:32;;;;;;;13.70;6.43;;;;;;;;;;4976204;28;109525;-66
2022/01/02 00:37:58;;;;;;;14.27;5.78;;;;;;;;;;4961224;28;105624;-66
2022/01/02 00:40:25;;;;;;;12.38;6.25;;;;;;;;;;4972612;28;106147;-66
2022/01/02 00:42:55;;;;;;;15.48;7.13;;;;;;;;;;4964637;28;106595;-66
2022/01/02 00:45:25;;;;;;;14.82;6.80;;;;;;;;;;4971134;28;106821;-66
2022/01/02 00:48:13;;;;;;;18.75;5.97;;;;;;;;;;4984410;28;107769;-66
2022/01/02 00:50:48;;;;;;;21.00;6.45;;;;;;;;;;4969778;28;107427;-66
2022/01/02 00:53:16;;;;;;;10.65;5.93;;;;;;;;;;4965863;28;106791;-67
2022/01/02 00:55:45;;;;;;;15.07;6.70;;;;;;;;;;4968821;28;106512;-66
2022/01/02 00:58:12;;;;;;;16.57;6.50;;;;;;;;;;4969567;28;108311;-66
2022/01/02 01:00:44;;;;;;;13.32;6.20;;;;;;;;;;4969584;28;110351;-67
2022/01/02 01:03:13;;;;;;;15.63;6.45;;;;;;;;;;4969532;28;109131;-66
2022/01/02 01:05:45;;;;;;;22.35;6.13;;;;;;;;;;4967422;28;106017;-66
2022/01/02 01:08:11;;;;;;;18.23;6.27;;;;;;;;;;4966690;28;108115;-65
2022/01/02 01:10:39;;;;;;;22.13;6.38;;;;;;;;;;4970867;28;106566;-66
2022/01/02 01:13:06;;;;;;;11.80;5.78;;;;;;;;;;4970927;28;107402;-65
2022/01/02 01:15:33;;;;;;;14.35;6.72;;;;;;;;;;4971696;28;107379;-65
2022/01/02 01:18:01;;;;;;;15.23;6.20;;;;;;;;;;4967830;28;106257;-65
2022/01/02 01:20:28;;;;;;;19.60;6.20;;;;;;;;;;4970056;28;107501;-66
2022/01/02 01:22:55;;;;;;;12.07;6.07;;;;;;;;;;4969660;28;106535;-67
2022/01/02 01:25:23;;;;;;;16.50;6.05;;;;;;;;;;5001275;27;105699;-65
2022/01/02 01:27:50;;;;;;;15.93;6.25;;;;;;;;;;4971102;28;108490;-65
2022/01/02 01:30:18;;;;;;;14.15;5.47;;;;;;;;;;4973191;28;107563;-65
2022/01/02 01:32:45;;;;;;;14.02;6.43;;;;;;;;;;4964718;28;106578;-65
2022/01/02 01:35:12;;;;;;;14.18;5.70;;;;;;;;;;4974140;28;108005;-65
2022/01/02 01:37:39;;;;;;;15.00;6.22;;;;;;;;;;4969097;28;106992;-66
2022/01/02 01:40:07;;;;;;;16.15;5.45;;;;;;;;;;4970597;28;108167;-65
2022/01/02 01:47:49;;;;;;;15.80;5.50;;;;;;;;;;4963903;28;109049;-66
2022/01/02 01:50:16;;;;;;;17.40;5.80;;;;;;;;;;4974248;28;109089;-66
2022/01/02 01:52:43;;;;;;;16.35;5.70;;;;;;;;;;4958183;28;108710;-65
2022/01/02 01:55:10;;;;;;;15.23;5.35;;;;;;;;;;4967248;28;110105;-66
2022/01/02 01:57:40;;;;;;;18.50;5.38;;;;;;;;;;4969346;28;106357;-68
2022/01/02 02:00:13;;;;;;;16.45;5.78;;;;;;;;;;4999790;28;108464;-67
2022/01/02 02:02:50;;;;;;;18.95;5.70;;;;;;;;;;4959680;28;109208;-65
2022/01/02 02:05:18;;;;;;;20.60;5.65;;;;;;;;;;4972188;28;106428;-66
2022/01/02 02:07:47;;;;;;;22.63;5.50;;;;;;;;;;4969158;28;108389;-66
2022/01/02 02:10:24;;;;;;;16.08;5.07;;;;;;;;;;4968539;28;108799;-66
2022/01/02 02:12:53;;;;;;;19.35;5.82;;;;;;;;;;4969438;28;105862;-65
2022/01/02 02:15:22;;;;;;;24.60;6.37;;;;;;;;;;4975179;28;108611;-66
2022/01/02 02:17:49;;;;;;;18.35;4.97;;;;;;;;;;4965284;28;106496;-65
2022/01/02 02:20:17;;;;;;;15.55;4.22;;;;;;;;;;4971875;28;108539;-65
2022/01/02 02:22:48;;;;;;;11.90;4.38;;;;;;;;;;4960646;28;108398;-66
2022/01/02 02:25:15;;;;;;;17.55;4.80;;;;;;;;;;4977133;28;106633;-66
2022/01/02 02:27:49;;;;;;;24.20;4.90;;;;;;;;;;4965701;28;108665;-66
2022/01/02 02:30:16;;;;;;;19.08;4.70;;;;;;;;;;4973559;28;109233;-66
2022/01/02 02:32:43;;;;;;;14.80;4.30;;;;;;;;;;4971876;28;106305;-66
2022/01/02 02:35:09;;;;;;;11.88;3.70;;;;;;;;;;4969684;28;107732;-66
2022/01/02 02:37:41;;;;;;;15.80;4.28;;;;;;;;;;4963351;28;108133;-65
2022/01/02 02:40:10;;;;;;;15.27;4.40;;;;;;;;;;4982244;28;108178;-65
2022/01/02 02:42:48;;;;;;;12.55;3.83;;;;;;;;;;4968589;28;109021;-66
2022/01/02 02:51:01;;;;;;;18.55;3.92;;;;;;;;;;4991828;28;109057;-65
2022/01/02 02:53:28;;;;;;;16.52;4.65;;;;;;;;;;4967525;28;105727;-66
2022/01/02 02:55:58;;;;;;;17.48;4.15;;;;;;;;;;4969239;28;108608;-65
2022/01/02 03:01:03;;;;;;;17.17;4.93;;;;;;;;;;4966674;28;108298;-66
2022/01/02 03:03:31;;;;;;;12.43;3.70;;;;;;;;;;4969708;28;110288;-66
2022/01/02 03:05:57;;;;;;;21.23;4.05;;;;;;;;;;4965793;28;106034;-66
2022/01/02 03:08:25;;;;;;;17.40;4.20;;;;;;;;;;4951889;28;109137;-66
2022/01/02 03:10:51;;;;;;;14.32;3.38;;;;;;;;;;4963952;28;107469;-66
2022/01/02 03:13:18;;;;;;;13.57;3.55;;;;;;;;;;4967233;28;106209;-66
2022/01/02 03:15:45;;;;;;;21.48;4.70;;;;;;;;;;4969908;28;107455;-66
2022/01/02 03:18:11;;;;;;;16.23;3.83;;;;;;;;;;4971108;28;107236;-66
2022/01/02 03:20:38;;;;;;;12.18;3.45;;;;;;;;;;4968932;28;107946;-67
2022/01/02 03:23:04;;;;;;;19.83;3.60;;;;;;;;;;4969241;28;107385;-66
2022/01/02 03:25:31;;;;;;;15.07;4.13;;;;;;;;;;4969795;28;105991;-66
2022/01/02 03:27:57;;;;;;;14.07;3.40;;;;;;;;;;4969851;28;108726;-66
2022/01/02 03:30:24;;;;;;;12.68;3.78;;;;;;;;;;4962976;28;109639;-67
2022/01/02 03:32:50;;;;;;;16.58;4.03;;;;;;;;;;4962651;28;105940;-66
2022/01/02 03:35:17;;;;;;;13.55;4.10;;;;;;;;;;4985710;28;108167;-66
2022/01/02 03:37:43;;;;;;;19.13;3.90;;;;;;;;;;4979573;28;108942;-66
2022/01/02 03:40:10;;;;;;;15.27;3.85;;;;;;;;;;4969613;28;107822;-66
2022/01/02 03:42:37;;;;;;;17.67;4.40;;;;;;;;;;4968863;28;106466;-66
2022/01/02 03:45:04;;;;;;;13.10;3.65;;;;;;;;;;4969689;28;106229;-66
2022/01/02 03:47:31;;;;;;;17.10;4.00;;;;;;;;;;4968730;28;106228;-66
2022/01/02 03:49:58;;;;;;;15.43;4.00;;;;;;;;;;4966910;28;109340;-66
2022/01/02 03:52:24;;;;;;;14.07;3.90;;;;;;;;;;4968918;28;106378;-66
2022/01/02 03:54:51;;;;;;;11.82;3.47;;;;;;;;;;4967611;28;108130;-66
2022/01/02 03:57:17;;;;;;;19.67;4.28;;;;;;;;;;4969788;28;109155;-66
2022/01/02 03:59:44;;;;;;;14.23;4.03;;;;;;;;;;4971411;28;106291;-65
2022/01/02 04:02:10;;;;;;;12.27;3.45;;;;;;;;;;4973104;28;108593;-65
2022/01/02 04:04:39;;;;;;;18.83;4.30;;;;;;;;;;4970625;28;106994;-66
2022/01/02 04:07:06;;;;;;;15.10;2.90;;;;;;;;;;4969169;28;106335;-66
2022/01/02 04:09:32;;;;;;;10.05;2.83;;;;;;;;;;4965737;28;109249;-64
2022/01/02 04:11:59;;;;;;;10.25;3.17;;;;;;;;;;4951698;28;106154;-64
2022/01/02 04:14:25;;;;;;;14.07;3.60;;;;;;;;;;4969060;28;107643;-65
2022/01/02 04:16:52;;;;;;;17.75;4.03;;;;;;;;;;4973630;28;108852;-64
2022/01/02 04:19:18;;;;;;;8.50;2.70;;;;;;;;;;4965917;28;106249;-64
2022/01/02 04:21:45;;;;;;;14.32;3.22;;;;;;;;;;4975884;28;108228;-65
2022/01/02 04:24:13;;;;;;;11.77;2.97;;;;;;;;;;4979893;28;107308;-65
2022/01/02 04:26:39;;;;;;;11.35;3.85;;;;;;;;;;4979311;28;108552;-65
2022/01/02 04:29:06;;;;;;;16.45;3.78;;;;;;;;;;5002267;28;108803;-65
2022/01/02 04:31:32;;;;;;;12.55;4.07;;;;;;;;;;4980664;28;106460;-65
2022/01/02 04:33:59;;;;;;;14.05;3.45;;;;;;;;;;4969687;28;108725;-65
2022/01/02 04:36:26;;;;;;;13.60;3.53;;;;;;;;;;4971711;28;108918;-66
2022/01/02 04:38:53;;;;;;;15.30;3.90;;;;;;;;;;4969720;28;106413;-65
2022/01/02 04:41:21;;;;;;;9.57;3.80;;;;;;;;;;4969878;28;108360;-65
2022/01/02 04:43:47;;;;;;;11.93;3.78;;;;;;;;;;4971925;28;109570;-65
2022/01/02 04:46:14;;;;;;;16.65;3.85;;;;;;;;;;4968288;28;106952;-66
2022/01/02 04:48:40;;;;;;;13.70;3.65;;;;;;;;;;4970273;28;106924;-65
2022/01/02 04:51:07;;;;;;;22.95;4.72;;;;;;;;;;4970467;28;106703;-68
2022/01/02 04:53:36;;;;;;;11.73;3.90;;;;;;;;;;4969434;28;107720;-65
2022/01/02 04:56:03;;;;;;;;;;;;;;;;;;4969075;28;107295;-65
2022/01/02 04:58:29;;;;;;;16.23;4.20;;;;;;;;;;5000642;28;106479;-65
2022/01/02 05:00:56;;;;;;;15.07;4.10;;;;;;;;;;4975898;28;106563;-65
2022/01/02 05:03:23;;;;;;;10.70;3.97;;;;;;;;;;4968551;28;108964;-67
2022/01/02 05:05:51;;;;;;;12.15;3.95;;;;;;;;;;4976142;28;106609;-65
2022/01/02 05:08:17;;;;;;;15.60;4.32;;;;;;;;;;4969455;28;109041;-65
2022/01/02 05:10:47;;;;;;;;;;;;;;;;;;4971143;28;106372;-65
2022/01/02 05:13:14;;;;;;;8.45;3.28;;;;;;;;;;4967743;28;133294;-66
2022/01/02 05:15:40;;;;;;;13.35;4.18;;;;;;;;;;4971193;28;109192;-65
2022/01/02 05:18:07;;;;;;;10.02;3.45;;;;;;;;;;4968386;28;107354;-68
2022/01/02 05:20:33;;;;;;;14.05;3.78;;;;;;;;;;4969623;28;107201;-65
2022/01/02 05:23:00;;;;;;;11.10;3.60;;;;;;;;;;4958077;28;109329;-66
2022/01/02 05:25:26;;;;;;;15.50;4.22;;;;;;;;;;4967639;28;107024;-65
2022/01/02 05:27:53;;;;;;;9.30;4.05;;;;;;;;;;4975244;28;108606;-65
2022/01/02 05:30:19;;;;;;;12.18;4.40;;;;;;;;;;4972335;28;106675;-65
2022/01/02 05:32:46;;;;;;;8.18;3.85;;;;;;;;;;4971232;28;108388;-65
2022/01/02 05:35:13;;;;;;;12.45;3.88;;;;;;;;;;4969154;28;108594;-67
2022/01/02 05:37:40;;;;;;;13.23;4.45;;;;;;;;;;4962873;28;105957;-65
2022/01/02 05:40:06;;;;;;;13.65;4.00;;;;;;;;;;4971876;28;108804;-65
2022/01/02 05:42:33;;;;;;;14.27;4.00;;;;;;;;;;4969314;28;109061;-65
2022/01/02 05:45:00;;;;;;;11.20;4.00;;;;;;;;;;4970988;28;106086;-66
2022/01/02 05:47:27;;;;;;;15.63;4.30;;;;;;;;;;4992217;28;108177;-65
2022/01/02 05:49:54;;;;;;;18.80;4.68;;;;;;;;;;4975827;28;107402;-65
2022/01/02 05:52:20;;;;;;;16.40;5.10;;;;;;;;;;4970476;28;108967;-65
2022/01/02 05:54:47;;;;;;;15.80;4.00;;;;;;;;;;4970417;28;106919;-65
2022/01/02 05:57:13;;;;;;;14.15;4.50;;;;;;;;;;4973203;28;106381;-66
2022/01/02 05:59:40;;;;;;;9.85;3.88;;;;;;;;;;4970018;28;108339;-65
2022/01/02 06:02:07;;;;;;;11.88;4.03;;;;;;;;;;4971174;28;109458;-68
2022/01/02 06:04:34;;;;;;;12.90;4.05;;;;;;;;;;4986590;28;106001;-65
2022/01/02 06:07:04;;;;;;;12.30;3.78;;;;;;;;;;4966700;28;108843;-65
2022/01/02 06:09:30;;;;;;;17.25;4.13;;;;;;;;;;4968333;28;109273;-65
2022/01/02 06:11:58;;;;;;;10.27;3.92;;;;;;;;;;4968820;28;106704;-65
2022/01/02 06:14:25;;;;;;;8.80;3.40;;;;;;;;;;4969554;28;107982;-65
2022/01/02 06:16:51;;;;;;;9.85;4.00;;;;;;;;;;4973539;28;107770;-65
2022/01/02 06:19:18;;;;;;;9.32;4.30;;;;;;;;;;4961126;28;108361;-66
2022/01/02 06:21:45;;;;;;;13.95;3.80;;;;;;;;;;4965789;28;109027;-65
2022/01/02 06:24:12;;;;;;;10.55;4.03;;;;;;;;;;4970565;28;108248;-65
2022/01/02 06:26:38;;;;;;;13.13;4.10;;;;;;;;;;4978966;28;108998;-65
2022/01/02 06:29:05;;;;;;;11.73;4.22;;;;;;;;;;4970508;28;109455;-65
2022/01/02 06:31:33;;;;;;;14.82;4.10;;;;;;;;;;4990249;28;106497;-65
2022/01/02 06:34:00;;;;;;;11.45;4.00;;;;;;;;;;4959240;28;108688;-65
2022/01/02 06:36:26;;;;;;;12.40;4.70;;;;;;;;;;4969670;28;105782;-66
2022/01/02 06:38:52;;;;;;;9.63;3.95;;;;;;;;;;4970758;28;108353;-65
2022/01/02 06:41:20;;;;;;;11.65;4.65;;;;;;;;;;4971888;28;109447;-65
2022/01/02 06:43:52;;;;;;;10.95;3.60;;;;;;;;;;4972426;28;107169;-65
2022/01/02 06:46:20;;;;;;;9.93;3.67;;;;;;;;;;4974639;28;108428;-64
2022/01/02 06:48:48;;;;;;;9.45;3.38;;;;;;;;;;4969102;28;109067;-64
2022/01/02 06:51:34;;;;;;;11.90;3.92;;;;;;;;;;4968395;28;106439;-65
2022/01/02 06:54:01;;;;;;;11.60;3.70;;;;;;;;;;4973274;28;109091;-65
2022/01/02 06:56:28;;;;;;;13.80;4.05;;;;;;;;;;4965733;28;107135;-65
2022/01/02 06:58:54;;;;;;;17.52;3.72;;;;;;;;;;4968991;28;109137;-65
2022/01/02 07:01:23;;;;;;;12.80;4.80;;;;;;;;;;4966369;28;109678;-65
2022/01/02 07:03:49;;;;;;;10.93;4.38;;;;;;;;;;4984094;28;107253;-65
2022/01/02 07:06:16;;;;;;;13.05;3.83;;;;;;;;;;4965562;28;107136;-68
2022/01/02 07:08:43;;;;;;;8.98;3.85;;;;;;;;;;4968247;28;109667;-66
2022/01/02 07:11:11;;;;;;;14.35;3.90;;;;;;;;;;4969474;28;106235;-66
2022/01/02 07:13:40;;;;;;;13.57;4.07;;;;;;;;;;4974118;28;107182;-67
2022/01/02 07:16:06;;;;;;;10.07;3.70;;;;;;;;;;4980311;28;107515;-66
2022/01/02 07:18:33;;;;;;;7.70;3.20;;;;;;;;;;4969860;28;106799;-66
2022/01/02 07:20:59;;;;;;;17.33;3.88;;;;;;;;;;4971105;28;106876;-66
2022/01/02 07:23:25;;;;;;;10.60;4.00;;;;;;;;;;4971269;28;106299;-67
2022/01/02 07:25:52;;;;;;;13.15;3.85;;;;;;;;;;4976059;28;107943;-66
2022/01/02 07:28:19;;;;;;;11.55;3.33;;;;;;;;;;4973399;28;107811;-67
2022/01/02 07:30:45;;;;;;;9.82;3.42;;;;;;;;;;4971530;28;106435;-66
2022/01/02 07:33:11;;;;;;;14.35;3.40;;;;;;;;;;4973218;28;106280;-66
2022/01/02 07:35:38;;;;;;;9.43;3.30;;;;;;;;;;4973320;28;108230;-66
2022/01/02 07:38:24;;;;;;;11.45;3.55;;;;;;;;;;4969988;28;107096;-66
2022/01/02 07:40:51;;;;;;;11.25;3.67;;;;;;;;;;4969627;28;107228;-66
2022/01/02 07:43:17;;;;;;;10.73;3.47;;;;;;;;;;4971220;28;106676;-65
2022/01/02 07:45:44;;;;;;;14.05;3.58;;;;;;;;;;4955702;28;107047;-66
2022/01/02 07:48:10;;;;;;;15.57;4.15;;;;;;;;;;4971153;28;106501;-66
2022/01/02 07:50:37;;;;;;;10.63;3.80;;;;;;;;;;4974831;28;107321;-65
2022/01/02 07:53:03;;;;;;;20.88;4.32;;;;;;;;;;4974653;28;106992;-65
2022/01/02 07:55:29;;;;;;;13.95;4.10;;;;;;;;;;4975630;28;106468;-65
2022/01/02 07:57:56;;;;;;;9.70;4.00;;;;;;;;;;4973241;28;105854;-65
2022/01/02 08:00:23;;;;;;;15.50;4.10;;;;;;;;;;4979637;28;107123;-66
2022/01/02 08:02:50;;;;;;;12.73;3.85;;;;;;;;;;4972778;28;106369;-64
2022/01/02 08:05:16;;;;;;;9.88;3.92;;;;;;;;;;4973972;28;106738;-66
2022/01/02 08:07:43;;;;;;;11.63;3.75;;;;;;;;;;4972116;28;106762;-66
2022/01/02 08:10:09;;;;;;;13.90;3.70;;;;;;;;;;4970345;28;106498;-66
2022/01/02 08:12:36;;;;;;;11.48;4.05;;;;;;;;;;4968326;28;106823;-66
2022/01/02 08:15:03;;;;;;;8.63;3.58;;;;;;;;;;4973331;28;108944;-66
2022/01/02 08:17:29;;;;;;;6.38;3.50;;;;;;;;;;4972251;28;106437;-66
2022/01/02 08:19:55;;;;;;;11.38;3.63;;;;;;;;;;4971450;28;106748;-66
2022/01/02 08:22:22;;;;;;;11.93;3.97;;;;;;;;;;4977871;28;107804;-66
2022/01/02 08:24:49;;;;;;;8.57;3.33;;;;;;;;;;4970497;28;107531;-66
2022/01/02 08:27:15;;;;;;;11.70;3.50;;;;;;;;;;4971909;28;108033;-66
2022/01/02 08:29:42;;;;;;;9.40;3.63;;;;;;;;;;4970957;28;107137;-66
2022/01/02 08:32:08;;;;;;;7.20;3.60;;;;;;;;;;4973773;28;106921;-66
2022/01/02 08:34:34;;;;;;;9.70;3.55;;;;;;;;;;4969235;28;107315;-65
2022/01/02 08:37:01;;;;;;;10.75;3.22;;;;;;;;;;4968051;28;106581;-64
2022/01/02 08:39:27;;;;;;;9.63;3.35;;;;;;;;;;4992450;27;107772;-66
2022/01/02 08:41:54;;;;;;;10.57;3.47;;;;;;;;;;4963446;28;107446;-66
2022/01/02 08:44:20;;;;;;;12.00;3.70;;;;;;;;;;4972191;28;106015;-66
2022/01/02 08:46:47;;;;;;;9.73;3.67;;;;;;;;;;4966956;28;107300;-66
2022/01/02 08:49:13;;;;;;;12.55;3.60;;;;;;;;;;4998952;28;106177;-66
2022/01/02 08:51:40;;;;;;;9.90;3.70;;;;;;;;;;4969978;28;106363;-66
2022/01/02 08:54:06;;;;;;;12.07;3.53;;;;;;;;;;4962586;28;109339;-66
2022/01/02 08:56:33;;;;;;;11.10;3.45;;;;;;;;;;4965694;28;106980;-66
2022/01/02 08:58:59;;;;;;;20.63;4.50;;;;;;;;;;4966006;28;107291;-66
2022/01/02 09:01:25;;;;;;;10.35;3.92;;;;;;;;;;4966519;28;107435;-68
2022/01/02 09:03:52;;;;;;;12.65;3.60;;;;;;;;;;4969614;28;107049;-65
2022/01/02 09:06:18;;;;;;;15.63;4.13;;;;;;;;;;4965054;28;107423;-65
2022/01/02 09:08:45;;;;;;;14.85;3.80;;;;;;;;;;4966617;28;105953;-65
2022/01/02 09:11:11;;;;;;;9.90;3.85;;;;;;;;;;4961320;28;108646;-65
2022/01/02 09:13:37;;;;;;;9.18;3.60;;;;;;;;;;4951831;28;108049;-65
2022/01/02 09:16:04;;;;;;;9.27;3.90;;;;;;;;;;4959025;28;107030;-65
2022/01/02 09:18:31;;;;;;;9.82;3.25;;;;;;;;;;4970881;28;106197;-65
2022/01/02 09:20:58;;;;;;;7.75;3.95;;;;;;;;;;4960774;28;107935;-65
2022/01/02 09:23:24;;;;;;;10.82;4.10;;;;;;;;;;4964968;28;106490;-66
2022/01/02 09:25:50;;;;;;;17.88;4.85;;;;;;;;;;4971779;28;107276;-65
2022/01/02 09:28:17;;;;;;;9.60;3.92;;;;;;;;;;4968515;28;105632;-64
2022/01/02 09:30:43;;;;;;;11.50;3.92;;;;;;;;;;4970335;28;108169;-65
2022/01/02 09:33:10;;;;;;;7.18;3.72;;;;;;;;;;4970689;28;107448;-65
2022/01/02 09:35:38;;;;;;;9.23;4.18;;;;;;;;;;4965568;28;108281;-66
2022/01/02 09:38:04;;;;;;;10.32;4.70;;;;;;;;;;4960857;28;106919;-66
2022/01/02 09:40:32;;;;;;;10.60;4.32;;;;;;;;;;4955723;28;107294;-65
2022/01/02 09:42:58;;;;;;;13.25;4.93;;;;;;;;;;4959610;28;108232;-65
2022/01/02 09:45:26;;;;;;;11.15;4.25;;;;;;;;;;4963876;28;110023;-66
2022/01/02 09:47:55;;;;;;;11.23;4.50;;;;;;;;;;4966219;28;107417;-67
2022/01/02 09:50:22;;;;;;;8.88;4.47;;;;;;;;;;4964357;28;107922;-66
2022/01/02 09:52:49;;;;;;;7.97;4.30;;;;;;;;;;4961477;28;109423;-67
2022/01/02 09:55:16;;;;;;;13.02;5.07;;;;;;;;;;4970733;28;106747;-66
2022/01/02 09:57:44;;;;;;;9.07;4.40;;;;;;;;;;4971365;28;108363;-66
2022/01/02 10:00:12;;;;;;;8.50;4.30;;;;;;;;;;4964138;28;107322;-66
2022/01/02 10:02:55;;;;;;;14.15;4.78;;;;;;;;;;4968823;28;107917;-64
2022/01/02 10:05:24;;;;;;;12.02;4.53;;;;;;;;;;4966673;28;107382;-65
2022/01/02 10:07:51;;;;;;;12.13;4.87;;;;;;;;;;4961501;28;106569;-64
2022/01/02 10:10:18;;;;;;;9.80;4.43;;;;;;;;;;4959708;28;106329;-64
2022/01/02 10:12:45;;;;;;;9.77;4.13;;;;;;;;;;4958720;28;106780;-64
2022/01/02 10:15:14;;;;;;;9.52;4.18;;;;;;;;;;4953682;28;106409;-64
2022/01/02 10:17:56;;;;;;;7.90;4.68;;;;;;;;;;4964775;28;106915;-64
2022/01/02 10:20:24;;;;;;;11.40;4.10;;;;;;;;;;4982574;28;109874;-64
2022/01/02 10:22:59;;;;;;;11.85;4.88;;;;;;;;;;4975398;28;107034;-64
2022/01/02 10:25:52;;;;;;;15.60;4.57;;;;;;;;;;4971868;28;107397;-64
2022/01/02 10:28:18;;;;;;;13.45;4.65;;;;;;;;;;4955567;28;107414;-64
2022/01/02 10:30:45;;;;;;;11.05;4.72;;;;;;;;;;4967965;28;106150;-63
2022/01/02 10:33:11;;;;;;;12.65;4.70;;;;;;;;;;4972671;28;105971;-64
2022/01/02 10:35:38;;;;;;;14.15;5.05;;;;;;;;;;4969971;28;107076;-64
2022/01/02 10:38:04;;;;;;;14.65;4.97;;;;;;;;;;4970034;28;108043;-63
2022/01/02 10:40:33;;;;;;;9.70;4.32;;;;;;;;;;4969303;28;107335;-66
2022/01/02 10:43:01;;;;;;;11.75;4.50;;;;;;;;;;4966581;28;107042;-63
2022/01/02 10:45:32;;;;;;;13.02;4.38;;;;;;;;;;4970668;28;105995;-64
2022/01/02 10:47:58;;;;;;;11.10;4.28;;;;;;;;;;4969193;28;107278;-63
2022/01/02 10:50:34;;;;;;;14.88;4.60;;;;;;;;;;4973917;28;106472;-63
2022/01/02 10:53:10;;;;;;;17.27;5.43;;;;;;;;;;4969051;28;106097;-63
2022/01/02 10:55:37;;;;;;;13.45;4.78;;;;;;;;;;4973710;28;106533;-64
2022/01/02 10:58:06;;;;;;;12.43;4.82;;;;;;;;;;4969603;28;108305;-63
2022/01/02 11:00:33;;;;;;;10.80;4.70;;;;;;;;;;4966121;28;107506;-64
2022/01/02 11:02:59;;;;;;;12.05;4.20;;;;;;;;;;4968112;28;105995;-63
2022/01/02 11:05:28;;;;;;;15.05;4.57;;;;;;;;;;4969292;28;107783;-64
2022/01/02 11:07:58;;;;;;;15.02;4.65;;;;;;;;;;4969199;28;106958;-64
2022/01/02 11:10:27;;;;;;;14.75;4.75;;;;;;;;;;4969905;28;105839;-63
2022/01/02 11:12:54;;;;;;;13.73;4.82;;;;;;;;;;4968778;28;107707;-64
2022/01/02 11:15:22;;;;;;;19.15;5.93;;;;;;;;;;4972109;28;107576;-65
2022/01/02 11:17:49;;;;;;;17.75;5.32;;;;;;;;;;4961570;28;107566;-64
2022/01/02 11:20:16;;;;;;;15.18;4.63;;;;;;;;;;4968582;28;107868;-65
2022/01/02 11:22:43;;;;;;;13.25;4.35;;;;;;;;;;4972982;28;107525;-64
2022/01/02 11:25:17;;;;;;;14.32;4.45;;;;;;;;;;4969210;28;106799;-65
2022/01/02 11:27:47;;;;;;;17.73;5.18;;;;;;;;;;4962217;28;106432;-66
2022/01/02 11:30:39;;;;;;;14.60;5.03;;;;;;;;;;4967483;28;105732;-69
2022/01/02 11:33:12;;;;;;;14.35;4.35;;;;;;;;;;4968159;28;106928;-64
2022/01/02 11:35:44;;;;;;;13.27;4.70;;;;;;;;;;4963948;28;108705;-65
2022/01/02 11:38:11;;;;;;;18.45;4.70;;;;;;;;;;4969475;28;106164;-66
2022/01/02 11:40:51;;;;;;;15.45;4.45;;;;;;;;;;4967707;28;110337;-66
2022/01/02 11:43:35;;;;;;;13.13;4.32;;;;;;;;;;4955051;28;106139;-66
2022/01/02 11:46:20;;;;;;;21.50;4.93;;;;;;;;;;4962472;28;107509;-64
2022/01/02 11:49:04;;;;;;;19.88;5.13;;;;;;;;;;4960128;28;107932;-64
2022/01/02 11:51:50;;;;;;;17.02;4.38;;;;;;;;;;4965630;28;106675;-65
2022/01/02 11:54:31;;;;;;;19.02;4.60;;;;;;;;;;4971810;28;106667;-64
2022/01/02 11:57:26;;;;;;;12.90;4.20;;;;;;;;;;4973758;28;108506;-64
2022/01/02 11:59:56;;;;;;;15.27;4.38;;;;;;;;;;4967583;28;106326;-64
2022/01/02 12:02:23;;;;;;;12.55;4.13;;;;;;;;;;4969380;28;106800;-64
2022/01/02 12:07:41;;;;;;;15.35;4.05;;;;;;;;;;4956471;28;105773;-68
2022/01/02 12:10:17;;;;;;;18.05;3.60;;;;;;;;;;4960402;28;108055;-66
2022/01/02 12:12:55;;;;;;;23.17;4.15;;;;;;;;;;4965933;28;106164;-64
2022/01/02 12:15:31;;;;;;;16.27;3.73;;;;;;;;;;4961526;28;107644;-64
2022/01/02 12:18:03;;;;;;;20.33;3.70;;;;;;;;;;4967085;28;108458;-65
2022/01/02 12:20:49;;;;;;;16.83;4.30;;;;;;;;;;4961198;28;106376;-65
2022/01/02 12:23:34;;;;;;;15.57;3.72;;;;;;;;;;4948204;28;108778;-64
2022/01/02 12:26:02;;;;;;;22.15;3.67;;;;;;;;;;4966211;28;107186;-64
2022/01/02 12:28:36;;;;;;;16.77;3.78;;;;;;;;;;4964238;28;106896;-66
2022/01/02 12:31:03;;;;;;;16.52;3.70;;;;;;;;;;4963990;28;107447;-65
2022/01/02 12:33:30;;;;;;;17.45;2.88;;;;;;;;;;4966123;28;106696;-65
2022/01/02 12:35:57;;;;;;;23.08;3.30;;;;;;;;;;4961415;28;106897;-65
2022/01/02 12:38:23;;;;;;;21.75;3.58;;;;;;;;;;4968657;28;107447;-66
2022/01/02 12:40:53;;;;;;;16.25;4.20;;;;;;;;;;4966122;28;106680;-67
2022/01/02 12:43:19;;;;;;;;;;;;;;;;;;4970082;28;106875;-67
2022/01/02 12:45:52;;;;;;;15.93;3.17;;;;;;;;;;4963197;28;137322;-67
2022/01/02 12:48:32;;;;;;;20.25;3.30;;;;;;;;;;4970281;28;106274;-67
2022/01/02 12:51:11;;;;;;;19.60;3.10;;;;;;;;;;4967538;28;106812;-67
2022/01/02 12:53:38;;;;;;;16.85;2.65;;;;;;;;;;4959037;28;106321;-68
2022/01/02 12:56:04;;;;;;;18.13;3.28;;;;;;;;;;4961814;28;106840;-67
2022/01/02 12:58:33;;;;;;;15.05;2.65;;;;;;;;;;4964456;28;107624;-66
2022/01/02 13:01:05;;;;;;;20.38;3.88;;;;;;;;;;4964016;28;106152;-66
2022/01/02 13:03:35;;;;;;;14.55;2.70;;;;;;;;;;4967228;28;107984;-66
2022/01/02 13:06:02;;;;;;;11.23;2.50;;;;;;;;;;4964553;28;107620;-67
2022/01/02 13:08:28;;;;;;;20.65;2.97;;;;;;;;;;4972518;28;107415;-66
2022/01/02 13:10:54;;;;;;;13.70;2.22;;;;;;;;;;4964711;28;107796;-67
2022/01/02 13:13:31;;;;;;;17.88;2.75;;;;;;;;;;4965532;28;106375;-66
2022/01/02 13:16:05;;;;;;;15.05;3.10;;;;;;;;;;4966474;28;107343;-66
2022/01/02 13:18:31;;;;;;;12.48;3.05;;;;;;;;;;4969587;28;107430;-66
2022/01/02 13:20:59;;;;;;;14.50;2.53;;;;;;;;;;4966943;28;107242;-66
2022/01/02 13:23:25;;;;;;;19.60;3.28;;;;;;;;;;4999017;27;106136;-66
2022/01/02 13:25:52;;;;;;;18.27;3.38;;;;;;;;;;4970152;28;106507;-66
2022/01/02 13:28:19;;;;;;;24.05;4.07;;;;;;;;;;4968776;28;106322;-67
2022/01/02 13:30:50;;;;;;;24.85;3.55;;;;;;;;;;4978316;28;106453;-66
2022/01/02 13:33:23;;;;;;;20.40;3.30;;;;;;;;;;4964744;28;106661;-63
2022/01/02 13:35:51;;;;;;;26.13;3.90;;;;;;;;;;4961530;28;106927;-64
2022/01/02 13:38:18;;;;;;;26.88;4.03;;;;;;;;;;4968899;28;107077;-66
2022/01/02 13:40:46;;;;;;;17.75;3.33;;;;;;;;;;4964885;28;107070;-66
2022/01/02 13:43:22;;;;;;;19.63;3.50;;;;;;;;;;4960226;28;107273;-66
2022/01/02 13:45:49;;;;;;;23.45;4.13;;;;;;;;;;4960341;28;106399;-66
2022/01/02 13:48:21;;;;;;;28.48;4.40;;;;;;;;;;4968747;28;106403;-66
2022/01/02 13:50:51;;;;;;;27.85;3.92;;;;;;;;;;4965148;28;108521;-65
2022/01/02 13:53:17;;;;;;;;;;;;;;;;;;4970938;28;107369;-66
2022/01/02 13:55:45;;;;;;;22.98;4.13;;;;;;;;;;4963117;28;137191;-66
2022/01/02 13:58:19;;;;;;;18.35;3.47;;;;;;;;;;4960859;28;107580;-66
2022/01/02 14:00:47;;;;;;;14.27;3.10;;;;;;;;;;4995160;27;106542;-66
2022/01/02 14:03:30;;;;;;;23.58;4.40;;;;;;;;;;4959388;28;107271;-68
2022/01/02 14:05:58;;;;;;;16.92;3.20;;;;;;;;;;4959733;28;109608;-66
2022/01/02 14:08:24;;;;;;;19.60;2.97;;;;;;;;;;4961386;28;106495;-66
2022/01/02 14:11:06;;;;;;;16.55;2.90;;;;;;;;;;4960767;28;107448;-66
2022/01/02 14:13:36;;;;;;;21.85;3.65;;;;;;;;;;4959648;28;107619;-66
2022/01/02 14:16:03;;;;;;;19.90;3.53;;;;;;;;;;4964137;28;106037;-65
2022/01/02 14:18:30;;;;;;;20.67;3.08;;;;;;;;;;4969029;28;108560;-66
2022/01/02 14:21:00;;;;;;;18.75;2.90;;;;;;;;;;4968499;28;110942;-66
2022/01/02 14:23:28;;;;;;;19.15;2.80;;;;;;;;;;4970068;28;106034;-66
2022/01/02 14:25:55;;;;;;;16.42;2.75;;;;;;;;;;4968626;28;109228;-66
2022/01/02 14:28:21;;;;;;;14.00;2.90;;;;;;;;;;4960554;28;109087;-65
2022/01/02 14:30:51;;;;;;;18.50;3.15;;;;;;;;;;4964919;28;107204;-65
2022/01/02 14:33:17;;;;;;;17.88;3.05;;;;;;;;;;4969063;28;107177;-65
2022/01/02 14:35:44;;;;;;;17.17;2.63;;;;;;;;;;4967190;28;106285;-64
2022/01/02 14:38:10;;;;;;;21.30;2.75;;;;;;;;;;4972522;28;106080;-65
2022/01/02 14:40:37;;;;;;;18.50;2.53;;;;;;;;;;4966414;28;106436;-66
2022/01/02 14:43:04;;;;;;;17.98;2.95;;;;;;;;;;4970792;28;106787;-64
2022/01/02 14:45:30;;;;;;;18.13;3.33;;;;;;;;;;4964996;28;106405;-65